createdAt,value
2023-04-02T00:04:58.250Z,94858.59
2023-04-02T00:10:01.042Z,94861.53
2023-04-02T00:15:04.200Z,94855.63
2023-04-02T00:20:07.864Z,94867.13
2023-04-02T00:25:10.338Z,94873.03
2023-04-02T00:30:12.831Z,94865.03
2023-04-02T00:35:15.578Z,94876.56
2023-04-02T00:40:18.739Z,94889.66
2023-04-02T00:45:21.747Z,94888.63
2023-04-02T00:50:24.209Z,94887.81
2023-04-02T00:55:26.823Z,94888.06
2023-04-02T01:00:30.016Z,94891.28
2023-04-02T01:05:35.692Z,94888.34
2023-04-02T01:10:39.990Z,94891.00
2023-04-02T01:15:43.268Z,94892.03
2023-04-02T01:20:46.303Z,94889.66
2023-04-02T01:25:48.725Z,94894.19
2023-04-02T01:30:51.505Z,94896.88
2023-04-02T01:35:54.154Z,94899.53
2023-04-02T01:40:56.568Z,94909.16
2023-04-02T01:45:59.695Z,94905.38
2023-04-02T01:51:03.894Z,94912.06
2023-04-02T01:56:07.393Z,94919.31
2023-04-02T02:01:18.582Z,94919.81
2023-04-02T02:06:31.305Z,94915.00
2023-04-02T02:11:33.960Z,94929.16
2023-04-02T02:16:41.583Z,94938.25
2023-04-02T02:21:44.244Z,94938.47
2023-04-02T02:26:47.443Z,94936.94
2023-04-02T02:31:49.899Z,94947.06
2023-04-02T02:36:54.001Z,94942.50
2023-04-02T02:41:57.201Z,94950.00
2023-04-02T02:46:59.868Z,94961.78
2023-04-02T02:52:03.094Z,94963.09
2023-04-02T02:57:05.634Z,94963.66
2023-04-02T03:02:08.968Z,94969.00
2023-04-02T03:07:12.212Z,94972.19
2023-04-02T03:12:15.449Z,94968.47
2023-04-02T03:17:17.847Z,94974.09
2023-04-02T03:22:20.358Z,94983.41
2023-04-02T03:27:22.687Z,94974.59
2023-04-02T03:32:25.156Z,94986.63
2023-04-02T03:37:27.841Z,94987.44
2023-04-02T03:42:30.187Z,94997.31
2023-04-02T03:47:33.393Z,94993.56
2023-04-02T03:52:36.557Z,94995.72
2023-04-02T03:57:38.867Z,95001.59
2023-04-02T04:02:41.277Z,95003.72
2023-04-02T04:07:43.651Z,95010.13
2023-04-02T04:12:46.259Z,95016.53
2023-04-02T04:17:51.560Z,95020.53
2023-04-02T04:22:55.933Z,95037.34
2023-04-02T04:27:59.278Z,95033.63
2023-04-02T04:33:02.071Z,95033.06
2023-04-02T04:38:05.170Z,95042.16
2023-04-02T04:43:07.751Z,95051.25
2023-04-02T04:48:11.040Z,95059.78
2023-04-02T04:53:13.839Z,95064.06
2023-04-02T04:58:16.805Z,95072.31
2023-04-02T05:03:19.160Z,95079.25
2023-04-02T05:08:21.501Z,95077.41
2023-04-02T05:13:23.846Z,95084.88
2023-04-02T05:18:26.475Z,95095.56
2023-04-02T05:23:29.566Z,95096.34
2023-04-02T05:28:35.007Z,95099.28
2023-04-02T05:33:37.445Z,95115.34
2023-04-02T05:38:39.739Z,95111.31
2023-04-02T05:43:42.036Z,95116.94
2023-04-02T05:48:44.540Z,95122.28
2023-04-02T05:53:47.896Z,95128.69
2023-04-02T05:58:50.383Z,95136.69
2023-04-02T06:03:54.920Z,95142.09
2023-04-02T06:08:58.642Z,95141.81
2023-04-02T06:14:02.110Z,95149.03
2023-04-02T06:19:04.512Z,95150.91
2023-04-02T06:24:06.978Z,95142.09
2023-04-02T06:29:09.700Z,95160.25
2023-04-02T06:34:12.063Z,95156.53
2023-04-02T06:39:14.711Z,95160.31
2023-04-02T06:44:17.443Z,95170.97
2023-04-02T06:49:19.824Z,95172.56
2023-04-02T06:54:23.490Z,95193.69
2023-04-02T06:59:26.564Z,95197.19
2023-04-02T07:04:28.917Z,95203.28
2023-04-02T07:09:32.842Z,95211.59
2023-04-02T07:14:35.894Z,95215.28
2023-04-02T07:19:38.431Z,95211.25
2023-04-02T07:24:40.760Z,95215.47
2023-04-02T07:29:43.570Z,95219.38
2023-04-02T07:34:45.976Z,95232.66
2023-04-02T07:39:48.339Z,95228.13
2023-04-02T07:44:57.730Z,95238.72
2023-04-02T07:50:00.925Z,95236.38
2023-04-02T07:55:13.458Z,95246.88
2023-04-02T08:00:25.827Z,95252.41
2023-04-02T08:05:28.205Z,95257.91
2023-04-02T08:10:40.575Z,95255.72
2023-04-02T08:15:43.719Z,95260.28
2023-04-02T08:20:46.432Z,95269.75
2023-04-02T08:25:48.853Z,95278.28
2023-04-02T08:30:52.795Z,95282.31
2023-04-02T08:35:55.256Z,95285.47
2023-04-02T08:40:57.566Z,95278.19
2023-04-02T08:46:00.745Z,95287.13
2023-04-02T08:51:03.099Z,95289.19
2023-04-02T08:56:05.926Z,95296.72
2023-04-02T09:01:08.716Z,95292.88
2023-04-02T09:06:13.424Z,95298.56
2023-04-02T09:11:17.337Z,95293.56
2023-04-02T09:16:22.366Z,95313.78
2023-04-02T09:21:28.108Z,95316.72
2023-04-02T09:26:30.782Z,95318.44
2023-04-02T09:31:34.226Z,95323.34
2023-04-02T09:36:37.145Z,95330.19
2023-04-02T09:41:40.082Z,95330.47
2023-04-02T09:46:42.443Z,95333.28
2023-04-02T09:51:44.741Z,95338.66
2023-04-02T09:56:47.908Z,95343.94
2023-04-02T10:01:51.406Z,95344.44
2023-04-02T10:06:57.887Z,95344.31
2023-04-02T10:12:01.180Z,95352.84
2023-04-02T10:17:05.032Z,95344.06
2023-04-02T10:22:07.468Z,95344.75
2023-04-02T10:27:10.406Z,95348.47
2023-04-02T10:32:13.606Z,95346.88
2023-04-02T10:37:15.998Z,95341.75
2023-04-02T10:42:18.468Z,95348.13
2023-04-02T10:47:22.419Z,95348.25
2023-04-02T10:52:26.319Z,95354.50
2023-04-02T10:57:31.033Z,95362.06
2023-04-02T11:02:33.628Z,95367.69
2023-04-02T11:07:46.247Z,95364.78
2023-04-02T11:12:48.586Z,95379.31
2023-04-02T11:17:52.093Z,95376.53
2023-04-02T11:22:56.438Z,95375.13
2023-04-02T11:28:08.771Z,95387.22
2023-04-02T11:33:11.333Z,95382.69
2023-04-02T11:38:14.498Z,95398.75
2023-04-02T11:43:16.904Z,95410.31
2023-04-02T11:48:20.538Z,95392.84
2023-04-02T11:53:23.402Z,95402.56
2023-04-02T11:58:25.852Z,95399.78
2023-04-02T12:03:29.731Z,95401.66
2023-04-02T12:08:32.185Z,95401.31
2023-04-02T12:13:34.607Z,95399.66
2023-04-02T12:18:36.994Z,95398.78
2023-04-02T12:23:39.344Z,95407.31
2023-04-02T12:28:42.496Z,95417.69
2023-04-02T12:33:45.832Z,95434.44
2023-04-02T12:38:48.928Z,95447.78
2023-04-02T12:43:51.507Z,95466.75
2023-04-02T12:48:54.639Z,95468.38
2023-04-02T12:53:57.199Z,95479.38
2023-04-02T12:59:00.636Z,95492.47
2023-04-02T13:04:03.914Z,95498.03
2023-04-02T13:09:06.630Z,95511.94
2023-04-02T13:14:09.029Z,95508.22
2023-04-02T13:19:12.122Z,95507.63
2023-04-02T13:24:14.407Z,95515.06
2023-04-02T13:29:17.642Z,95515.56
2023-04-02T13:34:20.764Z,95519.66
2023-04-02T13:39:23.700Z,95519.94
2023-04-02T13:44:26.892Z,95518.03
2023-04-02T13:49:29.880Z,95510.03
2023-04-02T13:54:34.870Z,95521.03
2023-04-02T13:59:37.234Z,95527.97
2023-04-02T14:04:39.653Z,95514.25
2023-04-02T14:09:42.205Z,95537.44
2023-04-02T14:14:45.482Z,95546.41
2023-04-02T14:19:47.770Z,95551.66
2023-04-02T14:24:50.195Z,95550.69
2023-04-02T14:29:53.296Z,95557.69
2023-04-02T14:34:56.447Z,95573.63
2023-04-02T14:39:59.022Z,95565.38
2023-04-02T14:45:01.758Z,95573.94
2023-04-02T14:50:05.504Z,95582.69
2023-04-02T14:55:08.773Z,95584.53
2023-04-02T15:00:13.591Z,95581.94
2023-04-02T15:05:16.386Z,95588.03
2023-04-02T15:10:18.737Z,95589.44
2023-04-02T15:15:29.692Z,95600.41
2023-04-02T15:20:36.728Z,95602.72
2023-04-02T15:25:40.040Z,95600.00
2023-04-02T15:30:43.378Z,95606.44
2023-04-02T15:35:46.513Z,95615.03
2023-04-02T15:40:49.023Z,95616.22
2023-04-02T15:45:52.280Z,95626.44
2023-04-02T15:50:55.639Z,95628.97
2023-04-02T15:55:58.074Z,95639.44
2023-04-02T16:01:01.328Z,95652.75
2023-04-02T16:06:03.834Z,95656.69
2023-04-02T16:11:16.742Z,95660.59
2023-04-02T16:16:19.958Z,95667.50
2023-04-02T16:21:32.484Z,95679.25
2023-04-02T16:26:35.325Z,95693.81
2023-04-02T16:31:37.760Z,95692.19
2023-04-02T16:36:40.465Z,95702.53
2023-04-02T16:41:43.344Z,95712.22
2023-04-02T16:46:45.989Z,95712.94
2023-04-02T16:51:48.624Z,95718.16
2023-04-02T16:56:51.085Z,95734.63
2023-04-02T17:01:54.207Z,95736.50
2023-04-02T17:06:57.555Z,95746.53
2023-04-02T17:11:59.902Z,95758.88
2023-04-02T17:17:12.427Z,95761.84
2023-04-02T17:22:14.844Z,95770.41
2023-04-02T17:27:17.316Z,95782.91
2023-04-02T17:32:20.265Z,95798.81
2023-04-02T17:37:22.728Z,95794.28
2023-04-02T17:42:25.367Z,95810.31
2023-04-02T17:47:28.673Z,95832.25
2023-04-02T17:52:32.033Z,95838.53
2023-04-02T17:57:35.348Z,95850.03
2023-04-02T18:02:37.956Z,95837.09
2023-04-02T18:07:40.313Z,95851.31
2023-04-02T18:12:43.481Z,95859.53
2023-04-02T18:17:46.003Z,95869.38
2023-04-02T18:22:48.402Z,95881.25
2023-04-02T18:27:50.939Z,95887.75
2023-04-02T18:32:53.362Z,95901.41
2023-04-02T18:37:56.085Z,95915.13
2023-04-02T18:42:58.902Z,95919.75
2023-04-02T18:48:01.285Z,95933.38
2023-04-02T18:53:04.545Z,95925.69
2023-04-02T18:58:07.773Z,95932.53
2023-04-02T19:03:10.290Z,95935.75
2023-04-02T19:08:12.681Z,95934.66
2023-04-02T19:13:15.384Z,95946.41
2023-04-02T19:18:18.566Z,95953.34
2023-04-02T19:23:20.874Z,95971.94
2023-04-02T19:28:23.955Z,95979.69
2023-04-02T19:33:27.091Z,95996.47
2023-04-02T19:38:30.988Z,95998.69
2023-04-02T19:43:33.478Z,96006.72
2023-04-02T19:48:36.682Z,96017.91
2023-04-02T19:53:39.171Z,96018.78
2023-04-02T19:58:41.551Z,96023.50
2023-04-02T20:03:43.990Z,96026.59
2023-04-02T20:08:46.378Z,96027.25
2023-04-02T20:13:50.077Z,96040.59
2023-04-02T20:18:53.768Z,96046.00
2023-04-02T20:23:56.933Z,96052.69
2023-04-02T20:29:00.134Z,96070.81
2023-04-02T20:34:05.348Z,96074.50
2023-04-02T20:39:09.107Z,96074.34
2023-04-02T20:44:12.354Z,96079.66
2023-04-02T20:49:15.100Z,96090.06
2023-04-02T20:54:18.286Z,96097.63
2023-04-02T20:59:21.160Z,96105.97
2023-04-02T21:04:23.650Z,96118.63
2023-04-02T21:09:26.919Z,96127.25
2023-04-02T21:14:35.550Z,96127.63
2023-04-02T21:19:38.229Z,96134.75
2023-04-02T21:24:40.652Z,96140.28
2023-04-02T21:29:44.207Z,96140.91
2023-04-02T21:34:47.308Z,96153.75
2023-04-02T21:39:50.576Z,96156.22
2023-04-02T21:44:53.406Z,96165.56
2023-04-02T21:49:55.773Z,96169.66
2023-04-02T21:54:58.534Z,96176.84
2023-04-02T22:00:01.010Z,96186.25
2023-04-02T22:05:03.577Z,96191.75
2023-04-02T22:10:06.043Z,96186.06
2023-04-02T22:15:09.526Z,96192.97
2023-04-02T22:20:20.312Z,96202.16
2023-04-02T22:25:32.359Z,96212.09
2023-04-02T22:30:35.626Z,96214.50
2023-04-02T22:35:39.932Z,96223.88
2023-04-02T22:40:43.425Z,96225.53
2023-04-02T22:45:45.852Z,96212.31
2023-04-02T22:50:49.012Z,96223.09
2023-04-02T22:55:52.234Z,96221.03
2023-04-02T23:00:55.448Z,96221.47
2023-04-02T23:06:08.288Z,96221.47
2023-04-02T23:11:21.369Z,96224.75
2023-04-02T23:16:24.277Z,96226.38
2023-04-02T23:21:27.030Z,96219.22
2023-04-02T23:26:31.141Z,96230.59
2023-04-02T23:31:34.327Z,96224.72
2023-04-02T23:36:37.583Z,96223.91
2023-04-02T23:41:39.949Z,96211.28
2023-04-02T23:46:42.296Z,96218.63
2023-04-02T23:51:44.604Z,96221.47
2023-04-02T23:56:47.821Z,96221.66
